createdAt,value
2023-04-12T00:00:04.134Z,37204.75
2023-04-12T00:02:35.628Z,37198.78
2023-04-12T00:05:03.116Z,37238.63
2023-04-12T00:07:30.069Z,37264.56
2023-04-12T00:09:56.757Z,37266.56
2023-04-12T00:12:23.408Z,37268.53
2023-04-12T00:14:49.818Z,37310.41
2023-04-12T00:17:16.325Z,37344.31
2023-04-12T00:19:43.039Z,37362.25
2023-04-12T00:22:10.121Z,37350.28
2023-04-12T00:24:40.065Z,37362.25
2023-04-12T00:27:07.850Z,37370.22
2023-04-12T00:29:36.024Z,37362.25
2023-04-12T00:32:03.801Z,37396.13
2023-04-12T00:34:30.716Z,37414.06
2023-04-12T00:36:57.099Z,37402.13
2023-04-12T00:39:23.724Z,37451.97
2023-04-12T00:41:50.632Z,37453.94
2023-04-12T00:44:18.236Z,37485.84
2023-04-12T00:46:47.874Z,37525.72
2023-04-12T00:49:15.429Z,37523.72
2023-04-12T00:51:43.422Z,37553.63
2023-04-12T00:54:11.022Z,37557.63
2023-04-12T00:56:40.181Z,37531.72
2023-04-12T00:59:07.598Z,37563.59
2023-04-12T01:01:34.027Z,37557.63
2023-04-12T01:04:01.009Z,37601.50
2023-04-12T01:06:48.769Z,37621.44
2023-04-12T01:09:20.525Z,37625.41
2023-04-12T01:12:24.797Z,37613.44
2023-04-12T01:15:09.422Z,37655.31
2023-04-12T01:17:57.955Z,37689.22
2023-04-12T01:20:29.064Z,37733.09
2023-04-12T01:23:25.553Z,37749.03
2023-04-12T01:26:09.732Z,37778.94
2023-04-12T01:28:41.151Z,37796.88
2023-04-12T01:31:08.694Z,37860.69
2023-04-12T01:33:39.352Z,37884.63
2023-04-12T01:36:13.854Z,37872.66
2023-04-12T01:38:41.892Z,37928.47
2023-04-12T01:41:08.513Z,37966.38
2023-04-12T01:43:43.718Z,37982.31
2023-04-12T01:46:12.842Z,37984.31
2023-04-12T01:48:39.489Z,38032.16
2023-04-12T01:51:08.734Z,38064.06
2023-04-12T01:53:54.582Z,38099.97
2023-04-12T01:56:22.679Z,38135.88
2023-04-12T01:58:53.352Z,38175.75
2023-04-12T02:01:19.988Z,38201.66
2023-04-12T02:03:51.654Z,38281.44
2023-04-12T02:06:22.566Z,38321.31
2023-04-12T02:08:58.754Z,38379.16
2023-04-12T02:11:25.233Z,38403.09
2023-04-12T02:13:51.627Z,38454.94
2023-04-12T02:16:20.376Z,38530.72
2023-04-12T02:18:47.468Z,38580.56
2023-04-12T02:21:14.803Z,38600.53
2023-04-12T02:23:41.859Z,38670.31
2023-04-12T02:26:08.282Z,38710.22
2023-04-12T02:28:34.855Z,38724.16
2023-04-12T02:31:01.895Z,38766.06
2023-04-12T02:33:30.638Z,38791.97
2023-04-12T02:36:02.369Z,38833.88
2023-04-12T02:38:30.101Z,38801.97
2023-04-12T02:41:01.375Z,38837.84
2023-04-12T02:43:28.466Z,38865.78
2023-04-12T02:46:01.469Z,38873.75
2023-04-12T02:48:29.743Z,38917.63
2023-04-12T02:50:56.666Z,38921.63
2023-04-12T02:53:25.186Z,38913.66
2023-04-12T02:56:10.939Z,38933.59
2023-04-12T02:58:37.656Z,38929.59
2023-04-12T03:01:07.812Z,38947.56
2023-04-12T03:03:50.162Z,38941.56
2023-04-12T03:06:34.962Z,38957.53
2023-04-12T03:09:01.753Z,39021.34
2023-04-12T03:11:28.708Z,38985.47
2023-04-12T03:13:56.211Z,38961.53
2023-04-12T03:16:25.425Z,39015.38
2023-04-12T03:19:03.546Z,39061.25
2023-04-12T03:21:30.981Z,39049.28
2023-04-12T03:23:58.239Z,39117.09
2023-04-12T03:26:26.478Z,39121.09
2023-04-12T03:29:11.181Z,39145.03
2023-04-12T03:31:39.598Z,39194.91
2023-04-12T03:34:08.191Z,39236.78
2023-04-12T03:36:38.047Z,39240.78
2023-04-12T03:39:16.950Z,39252.75
2023-04-12T03:41:45.379Z,39276.69
2023-04-12T03:44:12.343Z,39288.66
2023-04-12T03:46:38.923Z,39320.56
2023-04-12T03:49:09.615Z,39348.50
2023-04-12T03:51:36.503Z,39404.34
2023-04-12T03:54:04.355Z,39408.34
2023-04-12T03:56:40.023Z,39414.31
2023-04-12T03:59:12.272Z,39438.25
2023-04-12T04:01:39.618Z,39404.34
2023-04-12T04:04:07.235Z,39434.28
2023-04-12T04:06:34.625Z,39424.28
2023-04-12T04:09:01.397Z,39464.19
2023-04-12T04:11:29.544Z,39480.16
2023-04-12T04:14:03.907Z,39476.16
2023-04-12T04:16:31.183Z,39506.09
2023-04-12T04:18:59.314Z,39524.03
2023-04-12T04:21:26.668Z,39530.03
2023-04-12T04:23:58.534Z,39549.97
2023-04-12T04:26:33.044Z,39567.94
2023-04-12T04:29:07.391Z,39573.91
2023-04-12T04:31:37.643Z,39583.88
2023-04-12T04:34:06.571Z,39611.81
2023-04-12T04:36:38.068Z,39599.84
2023-04-12T04:39:05.805Z,39633.75
2023-04-12T04:41:43.169Z,39615.81
2023-04-12T04:44:29.180Z,39659.69
2023-04-12T04:46:59.019Z,39641.75
2023-04-12T04:49:25.452Z,39727.53
2023-04-12T04:51:52.316Z,39739.50
2023-04-12T04:54:20.474Z,39783.41
2023-04-12T04:56:46.828Z,39799.34
2023-04-12T04:59:17.523Z,39857.22
2023-04-12T05:01:44.299Z,39853.22
2023-04-12T05:04:11.022Z,39931.03
2023-04-12T05:06:37.509Z,39970.94
2023-04-12T05:09:06.233Z,40038.78
2023-04-12T05:11:38.269Z,40098.63
2023-04-12T05:14:12.000Z,40128.56
2023-04-12T05:16:39.374Z,40214.34
2023-04-12T05:19:07.170Z,40214.34
2023-04-12T05:21:34.626Z,40272.22
2023-04-12T05:24:01.384Z,40338.06
2023-04-12T05:26:28.927Z,40433.84
2023-04-12T05:28:57.146Z,40465.78
2023-04-12T05:31:24.690Z,40485.72
2023-04-12T05:33:53.952Z,40525.63
2023-04-12T05:36:24.883Z,40627.41
2023-04-12T05:38:52.212Z,40673.31
2023-04-12T05:41:18.646Z,40751.16
2023-04-12T05:43:46.748Z,40815.00
2023-04-12T05:46:14.368Z,40868.88
2023-04-12T05:48:44.041Z,40948.72
2023-04-12T05:51:10.759Z,40990.63
2023-04-12T05:53:37.994Z,41064.47
2023-04-12T05:56:06.691Z,41108.38
2023-04-12T05:58:34.086Z,41144.31
2023-04-12T06:01:00.950Z,41206.19
2023-04-12T06:03:30.170Z,41288.00
2023-04-12T06:06:02.458Z,41331.94
2023-04-12T06:08:29.410Z,41385.81
2023-04-12T06:10:55.936Z,41679.25
2023-04-12T06:13:23.019Z,41587.44
2023-04-12T06:15:49.534Z,41491.63
2023-04-12T06:18:16.725Z,41493.59
2023-04-12T06:20:45.321Z,41511.56
2023-04-12T06:23:12.837Z,41553.50
2023-04-12T06:25:39.530Z,41595.41
2023-04-12T06:28:06.166Z,41647.31
2023-04-12T06:30:40.409Z,41647.31
2023-04-12T06:33:07.371Z,41665.28
2023-04-12T06:35:34.321Z,41691.22
2023-04-12T06:38:02.076Z,41775.06
2023-04-12T06:40:28.586Z,41809.00
2023-04-12T06:42:55.378Z,41836.94
2023-04-12T06:45:22.775Z,41866.91
2023-04-12T06:47:49.296Z,41908.81
2023-04-12T06:50:15.785Z,41908.81
2023-04-12T06:52:42.161Z,41982.69
2023-04-12T06:55:08.976Z,42018.63
2023-04-12T06:57:35.444Z,42048.56
2023-04-12T07:00:03.368Z,42066.53
2023-04-12T07:02:29.838Z,42102.47
2023-04-12T07:04:56.353Z,42108.47
2023-04-12T07:07:22.814Z,42150.38
2023-04-12T07:09:49.246Z,42158.38
2023-04-12T07:12:16.124Z,42162.38
2023-04-12T07:14:44.620Z,42182.31
2023-04-12T07:17:11.779Z,42228.25
2023-04-12T07:19:39.281Z,42198.31
2023-04-12T07:22:05.798Z,42218.25
2023-04-12T07:24:32.170Z,42254.19
2023-04-12T07:26:58.597Z,42268.19
2023-04-12T07:29:25.437Z,42294.13
2023-04-12T07:31:51.877Z,42324.09
2023-04-12T07:34:18.684Z,42322.09
2023-04-12T07:36:45.387Z,42342.06
2023-04-12T07:39:12.913Z,42340.06
2023-04-12T07:41:39.558Z,42356.03
2023-04-12T07:44:06.228Z,42366.00
2023-04-12T07:46:32.842Z,42344.06
2023-04-12T07:48:59.537Z,42376.00
2023-04-12T07:51:26.774Z,42380.00
2023-04-12T07:53:53.231Z,42405.94
2023-04-12T07:56:19.589Z,42383.97
2023-04-12T07:58:45.960Z,42370.00
2023-04-12T08:01:13.239Z,42411.94
2023-04-12T08:03:40.004Z,42393.97
2023-04-12T08:06:07.784Z,42397.97
2023-04-12T08:08:34.315Z,42431.91
2023-04-12T08:11:02.866Z,42425.91
2023-04-12T08:13:29.310Z,42425.91
2023-04-12T08:15:55.803Z,42433.91
2023-04-12T08:18:22.225Z,42437.88
2023-04-12T08:20:49.170Z,42441.88
2023-04-12T08:23:16.313Z,42435.91
2023-04-12T08:25:42.724Z,42441.88
2023-04-12T08:28:09.124Z,42489.81
2023-04-12T08:30:35.752Z,42473.84
2023-04-12T08:33:02.938Z,42473.84
2023-04-12T08:35:29.580Z,42477.81
2023-04-12T08:37:56.088Z,42455.88
2023-04-12T08:40:22.751Z,42465.84
2023-04-12T08:42:50.062Z,42453.88
2023-04-12T08:45:16.489Z,42481.81
2023-04-12T08:47:44.471Z,42459.84
2023-04-12T08:50:15.794Z,42439.88
2023-04-12T08:52:42.843Z,42453.88
2023-04-12T08:55:11.100Z,42425.91
2023-04-12T08:57:40.972Z,42421.91
2023-04-12T09:00:09.199Z,42431.91
2023-04-12T09:02:37.380Z,42417.94
2023-04-12T09:05:06.528Z,42385.97
2023-04-12T09:07:33.499Z,42429.91
2023-04-12T09:09:59.886Z,42401.94
2023-04-12T09:12:27.071Z,42393.97
2023-04-12T09:15:13.914Z,42409.94
2023-04-12T09:17:41.931Z,42409.94
2023-04-12T09:20:17.749Z,42433.91
2023-04-12T09:22:46.185Z,42415.94
2023-04-12T09:25:13.846Z,42437.88
2023-04-12T09:27:49.901Z,42435.91
2023-04-12T09:30:17.859Z,42421.91
2023-04-12T09:32:45.007Z,42409.94
2023-04-12T09:35:11.976Z,42393.97
2023-04-12T09:37:39.123Z,42413.94
2023-04-12T09:40:07.824Z,42425.91
2023-04-12T09:42:35.821Z,42429.91
2023-04-12T09:45:20.725Z,42405.94
2023-04-12T09:47:47.547Z,42385.97
2023-04-12T09:50:28.915Z,42397.97
2023-04-12T09:52:57.656Z,42433.91
2023-04-12T09:55:26.677Z,42441.88
2023-04-12T09:57:54.593Z,42455.88
2023-04-12T10:00:26.760Z,42421.91
2023-04-12T10:02:55.639Z,42449.88
2023-04-12T10:05:25.598Z,42437.88
2023-04-12T10:07:53.145Z,42445.88
2023-04-12T10:10:21.132Z,42475.81
2023-04-12T10:12:49.191Z,42505.78
2023-04-12T10:15:17.890Z,42545.72
2023-04-12T10:17:53.520Z,42629.56
2023-04-12T10:20:21.954Z,42637.56
2023-04-12T10:22:50.841Z,42593.63
2023-04-12T10:25:20.620Z,42565.69
2023-04-12T10:27:47.927Z,42429.91
2023-04-12T10:30:31.568Z,42385.97
2023-04-12T10:33:04.086Z,42411.94
2023-04-12T10:35:48.546Z,42441.88
2023-04-12T10:38:15.669Z,42419.91
2023-04-12T10:41:06.800Z,42393.97
2023-04-12T10:43:33.274Z,42324.09
2023-04-12T10:46:04.268Z,42358.03
2023-04-12T10:48:38.499Z,42368.00
2023-04-12T10:51:26.541Z,42385.97
2023-04-12T10:54:17.627Z,42326.09
2023-04-12T10:56:46.218Z,42358.03
2023-04-12T10:59:28.922Z,42346.03
2023-04-12T11:02:13.573Z,42322.09
2023-04-12T11:05:21.070Z,42320.09
2023-04-12T11:08:06.895Z,42322.09
2023-04-12T11:10:39.352Z,42358.03
2023-04-12T11:13:08.965Z,42346.03
2023-04-12T11:15:38.692Z,42318.09
2023-04-12T11:18:11.552Z,42300.13
2023-04-12T11:20:40.670Z,42278.16
2023-04-12T11:23:10.625Z,42242.22
2023-04-12T11:25:37.843Z,42286.16
2023-04-12T11:28:08.936Z,42296.13
2023-04-12T11:30:53.005Z,42334.06
2023-04-12T11:33:41.576Z,42298.13
2023-04-12T11:36:12.954Z,42292.13
2023-04-12T11:38:39.952Z,42254.19
2023-04-12T11:41:08.494Z,42226.25
2023-04-12T11:43:36.145Z,42222.25
2023-04-12T11:46:03.115Z,42114.44
2023-04-12T11:48:29.708Z,42098.47
2023-04-12T11:51:10.369Z,42098.47
2023-04-12T11:53:37.769Z,42098.47
2023-04-12T11:56:04.367Z,42076.50
2023-04-12T11:58:31.090Z,42124.44
2023-04-12T12:00:58.550Z,42098.47
2023-04-12T12:03:25.413Z,42124.44
2023-04-12T12:05:52.437Z,42138.41
2023-04-12T12:08:19.661Z,42086.50
2023-04-12T12:13:19.209Z,42142.41
2023-04-12T12:15:46.116Z,42186.31
2023-04-12T12:18:12.989Z,42230.25
2023-04-12T12:20:41.876Z,42158.38
2023-04-12T12:23:08.626Z,42198.31
2023-04-12T12:25:35.170Z,42034.59
2023-04-12T12:28:05.163Z,42086.50
2023-04-12T12:30:32.179Z,42056.56
2023-04-12T12:32:58.656Z,42036.59
2023-04-12T12:35:25.360Z,41982.69
2023-04-12T12:37:55.646Z,41771.06
2023-04-12T12:40:31.296Z,41751.13
2023-04-12T12:42:57.892Z,41655.28
2023-04-12T12:45:29.083Z,41587.44
2023-04-12T12:47:58.873Z,41565.47
2023-04-12T12:50:30.662Z,41501.59
2023-04-12T12:53:00.500Z,41399.78
2023-04-12T12:55:27.806Z,41391.81
2023-04-12T12:58:07.334Z,41335.91
2023-04-12T13:00:35.144Z,41349.88
2023-04-12T13:03:02.045Z,41315.97
2023-04-12T13:05:29.120Z,41331.94
2023-04-12T13:07:55.545Z,41311.97
2023-04-12T13:10:23.347Z,41335.91
2023-04-12T13:12:49.726Z,41276.03
2023-04-12T13:17:45.843Z,41282.03
2023-04-12T13:20:12.378Z,41311.97
2023-04-12T13:22:38.755Z,41236.13
2023-04-12T13:25:05.616Z,41184.22
2023-04-12T13:27:32.286Z,41116.38
2023-04-12T13:29:59.422Z,41024.56
2023-04-12T13:32:25.949Z,41084.44
2023-04-12T13:34:52.443Z,41092.41
2023-04-12T13:37:18.837Z,41114.38
2023-04-12T13:39:45.518Z,41120.34
2023-04-12T13:42:11.955Z,41134.34
2023-04-12T13:44:38.439Z,41084.44
2023-04-12T13:47:04.887Z,41072.47
2023-04-12T13:49:31.303Z,41078.44
2023-04-12T13:51:57.801Z,41124.34
2023-04-12T13:54:24.250Z,41092.41
2023-04-12T13:56:51.109Z,41060.47
2023-04-12T13:59:17.710Z,41070.47
2023-04-12T14:01:44.319Z,41062.47
2023-04-12T14:04:11.091Z,41120.34
2023-04-12T14:06:38.624Z,41188.22
2023-04-12T14:09:08.782Z,41220.16
2023-04-12T14:11:49.229Z,41246.09
2023-04-12T14:14:16.828Z,41280.03
2023-04-12T14:16:44.613Z,41311.97
2023-04-12T14:19:11.238Z,41375.84
2023-04-12T14:21:37.645Z,41379.84
2023-04-12T14:24:04.224Z,41385.81
2023-04-12T14:26:30.731Z,41447.69
2023-04-12T14:28:57.688Z,41467.66
2023-04-12T14:31:24.248Z,41487.63
2023-04-12T14:33:50.863Z,41475.63
2023-04-12T14:36:17.300Z,41529.53
2023-04-12T14:38:45.122Z,41549.50
2023-04-12T14:41:12.282Z,41529.53
2023-04-12T14:43:38.669Z,41477.63
2023-04-12T14:46:05.924Z,41415.75
2023-04-12T14:48:32.444Z,41423.75
2023-04-12T14:50:58.954Z,41451.69
2023-04-12T14:53:25.414Z,41427.75
2023-04-12T14:55:52.076Z,41413.75
2023-04-12T14:58:19.543Z,41419.75
2023-04-12T15:00:46.412Z,41419.75
2023-04-12T15:03:13.794Z,41415.75
2023-04-12T15:05:41.065Z,41371.84
2023-04-12T15:08:07.460Z,41319.94
2023-04-12T15:10:34.129Z,41311.97
2023-04-12T15:13:00.511Z,41333.91
2023-04-12T15:15:27.448Z,41329.94
2023-04-12T15:17:54.004Z,41300.00
2023-04-12T15:20:20.528Z,41272.06
2023-04-12T15:22:47.004Z,41351.88
2023-04-12T15:25:13.428Z,41403.78
2023-04-12T15:27:39.872Z,41417.75
2023-04-12T15:30:09.603Z,41415.75
2023-04-12T15:32:39.819Z,41403.78
2023-04-12T15:35:22.765Z,41427.75
2023-04-12T15:37:54.744Z,41415.75
2023-04-12T15:40:22.520Z,41443.72
2023-04-12T15:42:48.949Z,41429.72
2023-04-12T15:45:15.336Z,41423.75
2023-04-12T15:47:41.900Z,41391.81
2023-04-12T15:50:09.557Z,41381.81
2023-04-12T15:52:36.206Z,41268.06
2023-04-12T15:55:04.982Z,41276.03
2023-04-12T15:57:31.533Z,41228.13
2023-04-12T15:59:59.313Z,41208.19
2023-04-12T16:02:27.627Z,41252.09
2023-04-12T16:04:55.903Z,41240.13
2023-04-12T16:07:22.661Z,41224.16
2023-04-12T16:09:49.330Z,41204.19
2023-04-12T16:12:15.889Z,41230.13
2023-04-12T16:14:42.268Z,41216.16
2023-04-12T16:17:08.696Z,41220.16
2023-04-12T16:19:35.183Z,41228.13
2023-04-12T16:22:03.363Z,41248.09
2023-04-12T16:24:29.841Z,41224.16
2023-04-12T16:26:56.346Z,41156.28
2023-04-12T16:29:23.974Z,41196.19
2023-04-12T16:31:51.547Z,41172.25
2023-04-12T16:34:21.661Z,41200.19
2023-04-12T16:36:48.239Z,41240.13
2023-04-12T16:39:14.780Z,41244.09
2023-04-12T16:41:41.510Z,41276.03
2023-04-12T16:44:07.944Z,41276.03
2023-04-12T16:46:34.355Z,41220.16
2023-04-12T16:49:03.640Z,41236.13
2023-04-12T16:51:36.841Z,41240.13
2023-04-12T16:54:03.824Z,41244.09
2023-04-12T16:56:30.525Z,41240.13
2023-04-12T16:58:56.970Z,41268.06
2023-04-12T17:01:23.429Z,41212.16
2023-04-12T17:03:49.939Z,41212.16
2023-04-12T17:06:17.029Z,41252.09
2023-04-12T17:08:44.808Z,41262.06
2023-04-12T17:11:11.788Z,41224.16
2023-04-12T17:13:38.579Z,41212.16
2023-04-12T17:16:05.324Z,41242.09
2023-04-12T17:18:31.954Z,41208.19
2023-04-12T17:20:58.842Z,41208.19
2023-04-12T17:23:25.428Z,41204.19
2023-04-12T17:25:52.398Z,41196.19
2023-04-12T17:28:19.349Z,41164.28
2023-04-12T17:30:46.262Z,41194.22
2023-04-12T17:33:12.756Z,41172.25
2023-04-12T17:35:40.658Z,41164.28
2023-04-12T17:38:07.339Z,41174.25
2023-04-12T17:40:33.782Z,41160.28
2023-04-12T17:43:00.371Z,41144.31
2023-04-12T17:45:26.860Z,41134.34
2023-04-12T17:47:54.448Z,41126.34
2023-04-12T17:50:22.113Z,41152.28
2023-04-12T17:52:48.917Z,41166.25
2023-04-12T17:55:19.185Z,41172.25
2023-04-12T17:57:45.581Z,41224.16
2023-04-12T18:00:12.343Z,41196.19
2023-04-12T18:02:43.604Z,41214.16
2023-04-12T18:05:10.472Z,41236.13
2023-04-12T18:07:37.118Z,41240.13
2023-04-12T18:10:05.303Z,41240.13
2023-04-12T18:12:32.618Z,41256.09
2023-04-12T18:14:58.994Z,41252.09
2023-04-12T18:17:26.584Z,41264.06
2023-04-12T18:19:54.120Z,41278.03
2023-04-12T18:22:20.540Z,41303.97
2023-04-12T18:24:46.924Z,41272.06
2023-04-12T18:27:13.831Z,41309.97
2023-04-12T18:29:40.474Z,41305.97
2023-04-12T18:32:07.181Z,41339.91
2023-04-12T18:34:33.915Z,41327.94
2023-04-12T18:37:00.378Z,41349.88
2023-04-12T18:39:26.878Z,41359.88
2023-04-12T18:41:53.288Z,41347.91
2023-04-12T18:44:19.941Z,41371.84
2023-04-12T18:46:46.406Z,41367.84
2023-04-12T18:49:14.286Z,41399.78
2023-04-12T18:51:42.573Z,41399.78
2023-04-12T18:54:12.861Z,41397.78
2023-04-12T18:56:42.081Z,41419.75
2023-04-12T18:59:09.198Z,41399.78
2023-04-12T19:01:35.632Z,41427.75
2023-04-12T19:04:05.063Z,41391.81
2023-04-12T19:06:32.060Z,41423.75
2023-04-12T19:08:58.516Z,41431.72
2023-04-12T19:11:26.466Z,41427.75
2023-04-12T19:13:53.405Z,41439.72
2023-04-12T19:16:19.823Z,41447.69
2023-04-12T19:18:46.290Z,41427.75
2023-04-12T19:21:12.936Z,41433.72
2023-04-12T19:23:39.728Z,41423.75
2023-04-12T19:26:06.337Z,41439.72
2023-04-12T19:28:32.733Z,41455.69
2023-04-12T19:30:59.423Z,41431.72
2023-04-12T19:33:26.276Z,41455.69
2023-04-12T19:35:55.709Z,41459.66
2023-04-12T19:38:22.467Z,41479.63
2023-04-12T19:40:50.745Z,41485.63
2023-04-12T19:43:18.570Z,41503.59
2023-04-12T19:45:45.091Z,41495.59
2023-04-12T19:48:12.895Z,41487.63
2023-04-12T19:50:39.674Z,41511.56
2023-04-12T19:53:06.235Z,41487.63
2023-04-12T19:55:32.644Z,41511.56
2023-04-12T19:57:59.115Z,41495.59
2023-04-12T20:00:27.192Z,41497.59
2023-04-12T20:02:54.287Z,41461.66
2023-04-12T20:05:22.344Z,41473.66
2023-04-12T20:07:49.112Z,41451.69
2023-04-12T20:10:16.075Z,41413.75
2023-04-12T20:12:42.472Z,41397.78
2023-04-12T20:15:14.302Z,41377.84
2023-04-12T20:17:42.631Z,41379.84
2023-04-12T20:20:10.792Z,41361.88
2023-04-12T20:22:38.605Z,41389.81
2023-04-12T20:25:05.524Z,41343.91
2023-04-12T20:27:32.777Z,41323.94
2023-04-12T20:30:00.252Z,41300.00
2023-04-12T20:32:26.727Z,41284.03
2023-04-12T20:34:53.166Z,41260.06
2023-04-12T20:37:19.876Z,41234.13
2023-04-12T20:39:46.261Z,41240.13
2023-04-12T20:42:15.928Z,41250.09
2023-04-12T20:44:42.359Z,41244.09
2023-04-12T20:47:09.898Z,41242.09
2023-04-12T20:49:36.359Z,41246.09
2023-04-12T20:52:02.964Z,41252.09
2023-04-12T20:54:30.137Z,41278.03
2023-04-12T20:56:59.471Z,41262.06
2023-04-12T20:59:30.172Z,41256.09
2023-04-12T21:01:58.222Z,41248.09
2023-04-12T21:04:27.654Z,41266.06
2023-04-12T21:06:57.872Z,41224.16
2023-04-12T21:09:24.542Z,41242.09
2023-04-12T21:11:52.397Z,41236.13
2023-04-12T21:14:19.908Z,41248.09
2023-04-12T21:16:48.609Z,41240.13
2023-04-12T21:19:18.489Z,41256.09
2023-04-12T21:21:45.829Z,41262.06
2023-04-12T21:24:13.053Z,41232.13
2023-04-12T21:26:40.093Z,41260.06
2023-04-12T21:29:06.504Z,41254.09
2023-04-12T21:31:32.920Z,41244.09
2023-04-12T21:33:59.717Z,41252.09
2023-04-12T21:36:28.514Z,41246.09
2023-04-12T21:38:55.817Z,41232.13
2023-04-12T21:41:23.600Z,41260.06
2023-04-12T21:43:50.136Z,41238.13
2023-04-12T21:46:16.798Z,41236.13
2023-04-12T21:48:43.574Z,41232.13
2023-04-12T21:51:10.057Z,41250.09
2023-04-12T21:53:36.598Z,41240.13
2023-04-12T21:56:03.061Z,41232.13
2023-04-12T21:58:29.954Z,41234.13
2023-04-12T22:00:58.079Z,41222.16
2023-04-12T22:03:24.895Z,41228.13
2023-04-12T22:06:03.675Z,41260.06
2023-04-12T22:08:32.981Z,41256.09
2023-04-12T22:11:00.157Z,41250.09
2023-04-12T22:13:27.138Z,41242.09
2023-04-12T22:15:53.573Z,41228.13
2023-04-12T22:18:20.463Z,41240.13
2023-04-12T22:20:47.753Z,41240.13
2023-04-12T22:23:17.699Z,41216.16
2023-04-12T22:25:45.211Z,41254.09
2023-04-12T22:28:12.152Z,41224.16
2023-04-12T22:30:38.837Z,41254.09
2023-04-12T22:33:05.635Z,41248.09
2023-04-12T22:35:35.068Z,41260.06
2023-04-12T22:38:02.024Z,41270.06
2023-04-12T22:40:28.548Z,41252.09
2023-04-12T22:42:55.932Z,41248.09
2023-04-12T22:45:22.331Z,41280.03
2023-04-12T22:47:48.773Z,41264.06
2023-04-12T22:50:15.217Z,41248.09
2023-04-12T22:52:42.072Z,41218.16
2023-04-12T22:55:11.451Z,41256.09
2023-04-12T22:57:38.712Z,41224.16
2023-04-12T23:00:06.066Z,41248.09
2023-04-12T23:02:33.843Z,41244.09
2023-04-12T23:05:02.351Z,41234.13
2023-04-12T23:07:30.082Z,41220.16
2023-04-12T23:09:57.559Z,41208.19
2023-04-12T23:12:24.678Z,41228.13
2023-04-12T23:14:55.293Z,41208.19
2023-04-12T23:17:21.764Z,41216.16
2023-04-12T23:19:50.268Z,41198.19
2023-04-12T23:22:44.288Z,41164.28
2023-04-12T23:25:22.390Z,41156.28
2023-04-12T23:27:49.991Z,41136.31
2023-04-12T23:30:20.072Z,41172.25
2023-04-12T23:32:46.484Z,41146.31
2023-04-12T23:35:14.275Z,41144.31
2023-04-12T23:37:41.515Z,41154.28
2023-04-12T23:40:14.839Z,41106.38
2023-04-12T23:42:43.069Z,41100.41
2023-04-12T23:45:10.637Z,41104.38
2023-04-12T23:47:37.346Z,41116.38
2023-04-12T23:50:06.347Z,41092.41
2023-04-12T23:52:33.124Z,41104.38
2023-04-12T23:54:59.974Z,41118.38
2023-04-12T23:57:26.433Z,41106.38
2023-04-12T23:59:52.852Z,41132.34
